sensor_id;sensor_type;location;lat;lon;timestamp;P1;durP1;ratioP1;P2;durP2;ratioP2
11422;SDS011;5768;51.476;7.210;2022-12-20T00:01:21;3.40;;;1.90;;
11422;SDS011;5768;51.476;7.210;2022-12-20T00:06:27;3.30;;;2.37;;
11422;SDS011;5768;51.476;7.210;2022-12-20T00:11:30;2.63;;;1.90;;
11422;SDS011;5768;51.476;7.210;2022-12-20T00:16:32;3.30;;;1.80;;
11422;SDS011;5768;51.476;7.210;2022-12-20T00:21:37;2.30;;;1.90;;
11422;SDS011;5768;51.476;7.210;2022-12-20T00:26:40;1.90;;;1.57;;
11422;SDS011;5768;51.476;7.210;2022-12-20T00:31:42;2.00;;;1.70;;
11422;SDS011;5768;51.476;7.210;2022-12-20T00:43:20;2.10;;;1.73;;
11422;SDS011;5768;51.476;7.210;2022-12-20T00:48:22;1.67;;;1.58;;
11422;SDS011;5768;51.476;7.210;2022-12-20T00:53:25;2.67;;;1.70;;
11422;SDS011;5768;51.476;7.210;2022-12-20T00:58:30;2.55;;;1.52;;
11422;SDS011;5768;51.476;7.210;2022-12-20T01:03:33;1.88;;;1.77;;
11422;SDS011;5768;51.476;7.210;2022-12-20T01:08:35;2.22;;;1.70;;
11422;SDS011;5768;51.476;7.210;2022-12-20T01:13:39;2.35;;;1.73;;
11422;SDS011;5768;51.476;7.210;2022-12-20T01:18:45;1.60;;;1.50;;
11422;SDS011;5768;51.476;7.210;2022-12-20T01:23:49;3.00;;;1.90;;
11422;SDS011;5768;51.476;7.210;2022-12-20T01:28:54;2.08;;;1.55;;
11422;SDS011;5768;51.476;7.210;2022-12-20T01:33:58;2.00;;;1.80;;
11422;SDS011;5768;51.476;7.210;2022-12-20T01:39:03;1.93;;;1.70;;
11422;SDS011;5768;51.476;7.210;2022-12-20T01:49:59;2.08;;;1.90;;
11422;SDS011;5768;51.476;7.210;2022-12-20T01:55:06;1.65;;;1.55;;
11422;SDS011;5768;51.476;7.210;2022-12-20T02:00:17;2.47;;;1.73;;
11422;SDS011;5768;51.476;7.210;2022-12-20T02:05:21;2.90;;;2.07;;
11422;SDS011;5768;51.476;7.210;2022-12-20T02:10:26;1.80;;;1.70;;
11422;SDS011;5768;51.476;7.210;2022-12-20T02:15:44;2.47;;;1.73;;
11422;SDS011;5768;51.476;7.210;2022-12-20T02:21:01;2.17;;;1.87;;
11422;SDS011;5768;51.476;7.210;2022-12-20T02:32:19;3.40;;;2.08;;
11422;SDS011;5768;51.476;7.210;2022-12-20T02:37:25;2.63;;;1.80;;
11422;SDS011;5768;51.476;7.210;2022-12-20T02:42:28;2.05;;;1.90;;
11422;SDS011;5768;51.476;7.210;2022-12-20T02:47:34;3.47;;;2.00;;
11422;SDS011;5768;51.476;7.210;2022-12-20T02:52:42;2.23;;;2.03;;
11422;SDS011;5768;51.476;7.210;2022-12-20T02:57:46;2.37;;;1.83;;
11422;SDS011;5768;51.476;7.210;2022-12-20T03:02:57;2.58;;;1.90;;
11422;SDS011;5768;51.476;7.210;2022-12-20T03:08:18;1.90;;;1.80;;
11422;SDS011;5768;51.476;7.210;2022-12-20T03:13:22;1.83;;;1.70;;
11422;SDS011;5768;51.476;7.210;2022-12-20T03:18:30;2.30;;;1.90;;
11422;SDS011;5768;51.476;7.210;2022-12-20T03:23:32;2.77;;;2.20;;
11422;SDS011;5768;51.476;7.210;2022-12-20T03:28:34;2.17;;;1.97;;
11422;SDS011;5768;51.476;7.210;2022-12-20T03:33:38;3.40;;;2.17;;
11422;SDS011;5768;51.476;7.210;2022-12-20T03:38:40;3.43;;;2.20;;
11422;SDS011;5768;51.476;7.210;2022-12-20T03:43:43;4.60;;;2.47;;
11422;SDS011;5768;51.476;7.210;2022-12-20T03:48:46;3.03;;;1.83;;
11422;SDS011;5768;51.476;7.210;2022-12-20T03:53:48;2.73;;;2.33;;
11422;SDS011;5768;51.476;7.210;2022-12-20T03:58:50;2.80;;;2.27;;
11422;SDS011;5768;51.476;7.210;2022-12-20T04:03:54;3.43;;;2.50;;
11422;SDS011;5768;51.476;7.210;2022-12-20T04:08:57;4.03;;;2.40;;
11422;SDS011;5768;51.476;7.210;2022-12-20T04:14:00;4.40;;;2.20;;
11422;SDS011;5768;51.476;7.210;2022-12-20T04:19:04;4.63;;;2.37;;
11422;SDS011;5768;51.476;7.210;2022-12-20T04:24:06;3.00;;;2.30;;
11422;SDS011;5768;51.476;7.210;2022-12-20T04:29:10;2.83;;;2.10;;
11422;SDS011;5768;51.476;7.210;2022-12-20T04:34:13;2.90;;;2.60;;
11422;SDS011;5768;51.476;7.210;2022-12-20T04:39:15;2.77;;;2.00;;
11422;SDS011;5768;51.476;7.210;2022-12-20T04:44:17;3.37;;;2.30;;
11422;SDS011;5768;51.476;7.210;2022-12-20T04:49:21;2.80;;;2.23;;
11422;SDS011;5768;51.476;7.210;2022-12-20T04:54:24;2.67;;;2.20;;
11422;SDS011;5768;51.476;7.210;2022-12-20T04:59:27;3.27;;;2.07;;
11422;SDS011;5768;51.476;7.210;2022-12-20T05:04:33;3.17;;;2.40;;
11422;SDS011;5768;51.476;7.210;2022-12-20T05:09:35;4.00;;;2.20;;
11422;SDS011;5768;51.476;7.210;2022-12-20T05:14:41;2.87;;;2.27;;
11422;SDS011;5768;51.476;7.210;2022-12-20T05:19:44;2.43;;;2.10;;
11422;SDS011;5768;51.476;7.210;2022-12-20T05:24:46;2.63;;;2.40;;
11422;SDS011;5768;51.476;7.210;2022-12-20T05:30:06;2.93;;;2.50;;
11422;SDS011;5768;51.476;7.210;2022-12-20T05:35:11;2.90;;;2.43;;
11422;SDS011;5768;51.476;7.210;2022-12-20T05:40:14;4.60;;;2.50;;
11422;SDS011;5768;51.476;7.210;2022-12-20T05:45:17;3.00;;;2.37;;
11422;SDS011;5768;51.476;7.210;2022-12-20T05:50:21;4.97;;;2.50;;
11422;SDS011;5768;51.476;7.210;2022-12-20T05:55:24;2.80;;;2.50;;
11422;SDS011;5768;51.476;7.210;2022-12-20T06:00:26;3.20;;;2.43;;
11422;SDS011;5768;51.476;7.210;2022-12-20T06:05:29;2.50;;;2.20;;
11422;SDS011;5768;51.476;7.210;2022-12-20T06:10:32;2.47;;;2.27;;
11422;SDS011;5768;51.476;7.210;2022-12-20T06:15:38;3.00;;;2.50;;
11422;SDS011;5768;51.476;7.210;2022-12-20T06:20:42;3.13;;;2.40;;
11422;SDS011;5768;51.476;7.210;2022-12-20T06:25:51;2.73;;;2.50;;
11422;SDS011;5768;51.476;7.210;2022-12-20T06:30:54;2.73;;;2.40;;
11422;SDS011;5768;51.476;7.210;2022-12-20T06:35:59;2.57;;;2.37;;
11422;SDS011;5768;51.476;7.210;2022-12-20T06:41:02;2.60;;;2.20;;
11422;SDS011;5768;51.476;7.210;2022-12-20T06:46:05;2.60;;;2.40;;
11422;SDS011;5768;51.476;7.210;2022-12-20T06:51:08;3.40;;;2.40;;
11422;SDS011;5768;51.476;7.210;2022-12-20T06:56:11;3.35;;;3.05;;
11422;SDS011;5768;51.476;7.210;2022-12-20T07:01:14;3.53;;;2.40;;
11422;SDS011;5768;51.476;7.210;2022-12-20T07:06:17;4.33;;;2.60;;
11422;SDS011;5768;51.476;7.210;2022-12-20T07:11:19;3.00;;;2.30;;
11422;SDS011;5768;51.476;7.210;2022-12-20T07:16:24;3.43;;;2.40;;
11422;SDS011;5768;51.476;7.210;2022-12-20T07:21:28;2.50;;;2.30;;
11422;SDS011;5768;51.476;7.210;2022-12-20T07:26:30;2.60;;;2.13;;
11422;SDS011;5768;51.476;7.210;2022-12-20T07:31:34;2.33;;;2.13;;
11422;SDS011;5768;51.476;7.210;2022-12-20T07:36:38;2.37;;;1.87;;
11422;SDS011;5768;51.476;7.210;2022-12-20T07:41:44;3.07;;;2.07;;
11422;SDS011;5768;51.476;7.210;2022-12-20T07:46:46;3.60;;;2.57;;
11422;SDS011;5768;51.476;7.210;2022-12-20T07:51:50;3.27;;;2.43;;
11422;SDS011;5768;51.476;7.210;2022-12-20T07:56:58;2.47;;;1.87;;
11422;SDS011;5768;51.476;7.210;2022-12-20T08:02:05;3.10;;;2.10;;
11422;SDS011;5768;51.476;7.210;2022-12-20T08:07:12;4.33;;;2.10;;
11422;SDS011;5768;51.476;7.210;2022-12-20T08:12:15;2.80;;;2.03;;
11422;SDS011;5768;51.476;7.210;2022-12-20T08:17:19;2.07;;;1.87;;
11422;SDS011;5768;51.476;7.210;2022-12-20T08:22:22;4.57;;;1.93;;
11422;SDS011;5768;51.476;7.210;2022-12-20T08:27:25;3.13;;;1.90;;
11422;SDS011;5768;51.476;7.210;2022-12-20T08:32:30;3.07;;;1.80;;
11422;SDS011;5768;51.476;7.210;2022-12-20T08:37:33;2.43;;;1.93;;
11422;SDS011;5768;51.476;7.210;2022-12-20T08:42:36;1.50;;;1.40;;
11422;SDS011;5768;51.476;7.210;2022-12-20T08:47:44;2.80;;;1.93;;
11422;SDS011;5768;51.476;7.210;2022-12-20T08:52:50;1.85;;;1.70;;
11422;SDS011;5768;51.476;7.210;2022-12-20T08:57:52;2.37;;;1.70;;
11422;SDS011;5768;51.476;7.210;2022-12-20T09:02:55;1.83;;;1.60;;
11422;SDS011;5768;51.476;7.210;2022-12-20T09:07:58;2.20;;;1.75;;
11422;SDS011;5768;51.476;7.210;2022-12-20T09:13:01;3.70;;;1.90;;
11422;SDS011;5768;51.476;7.210;2022-12-20T09:18:03;2.65;;;1.77;;
11422;SDS011;5768;51.476;7.210;2022-12-20T09:23:07;2.28;;;1.70;;
11422;SDS011;5768;51.476;7.210;2022-12-20T09:28:10;2.13;;;1.88;;
11422;SDS011;5768;51.476;7.210;2022-12-20T09:33:16;3.15;;;1.83;;
11422;SDS011;5768;51.476;7.210;2022-12-20T09:38:24;2.00;;;1.70;;
11422;SDS011;5768;51.476;7.210;2022-12-20T09:43:34;2.42;;;2.17;;
11422;SDS011;5768;51.476;7.210;2022-12-20T09:48:43;1.98;;;1.80;;
11422;SDS011;5768;51.476;7.210;2022-12-20T09:53:53;2.50;;;1.70;;
11422;SDS011;5768;51.476;7.210;2022-12-20T09:59:09;3.20;;;1.70;;
11422;SDS011;5768;51.476;7.210;2022-12-20T10:04:17;2.30;;;2.00;;
11422;SDS011;5768;51.476;7.210;2022-12-20T10:09:29;1.70;;;1.52;;
11422;SDS011;5768;51.476;7.210;2022-12-20T10:14:55;2.60;;;1.80;;
11422;SDS011;5768;51.476;7.210;2022-12-20T10:20:22;3.35;;;1.90;;
11422;SDS011;5768;51.476;7.210;2022-12-20T10:25:46;2.33;;;1.80;;
11422;SDS011;5768;51.476;7.210;2022-12-20T10:30:58;3.42;;;1.98;;
11422;SDS011;5768;51.476;7.210;2022-12-20T10:36:22;2.28;;;1.70;;
11422;SDS011;5768;51.476;7.210;2022-12-20T10:41:28;2.70;;;2.00;;
11422;SDS011;5768;51.476;7.210;2022-12-20T10:46:34;1.80;;;1.70;;
11422;SDS011;5768;51.476;7.210;2022-12-20T10:51:40;1.92;;;1.60;;
11422;SDS011;5768;51.476;7.210;2022-12-20T10:56:56;1.40;;;1.30;;
11422;SDS011;5768;51.476;7.210;2022-12-20T11:02:02;2.42;;;1.70;;
11422;SDS011;5768;51.476;7.210;2022-12-20T11:07:27;2.92;;;1.63;;
11422;SDS011;5768;51.476;7.210;2022-12-20T11:12:33;2.60;;;1.40;;
11422;SDS011;5768;51.476;7.210;2022-12-20T11:17:36;2.25;;;1.65;;
11422;SDS011;5768;51.476;7.210;2022-12-20T11:22:49;1.92;;;1.80;;
11422;SDS011;5768;51.476;7.210;2022-12-20T11:28:13;2.75;;;1.65;;
11422;SDS011;5768;51.476;7.210;2022-12-20T11:33:45;1.98;;;1.58;;
11422;SDS011;5768;51.476;7.210;2022-12-20T11:39:07;2.05;;;1.75;;
11422;SDS011;5768;51.476;7.210;2022-12-20T11:44:22;2.55;;;1.65;;
11422;SDS011;5768;51.476;7.210;2022-12-20T11:49:56;2.30;;;2.08;;
11422;SDS011;5768;51.476;7.210;2022-12-20T11:55:38;8.27;;;5.20;;
11422;SDS011;5768;51.476;7.210;2022-12-20T12:00:49;3.88;;;2.47;;
11422;SDS011;5768;51.476;7.210;2022-12-20T12:05:57;3.28;;;2.22;;
11422;SDS011;5768;51.476;7.210;2022-12-20T12:11:11;6.05;;;1.77;;
11422;SDS011;5768;51.476;7.210;2022-12-20T12:16:21;1.95;;;1.70;;
11422;SDS011;5768;51.476;7.210;2022-12-20T12:21:30;2.45;;;1.73;;
11422;SDS011;5768;51.476;7.210;2022-12-20T12:26:43;2.72;;;1.73;;
11422;SDS011;5768;51.476;7.210;2022-12-20T12:31:50;1.60;;;1.50;;
11422;SDS011;5768;51.476;7.210;2022-12-20T12:37:09;1.90;;;1.70;;
11422;SDS011;5768;51.476;7.210;2022-12-20T12:48:44;2.05;;;1.50;;
11422;SDS011;5768;51.476;7.210;2022-12-20T12:54:01;3.10;;;1.70;;
11422;SDS011;5768;51.476;7.210;2022-12-20T13:04:55;1.40;;;1.30;;
11422;SDS011;5768;51.476;7.210;2022-12-20T13:10:04;3.08;;;1.65;;
11422;SDS011;5768;51.476;7.210;2022-12-20T13:16:08;1.80;;;1.60;;
11422;SDS011;5768;51.476;7.210;2022-12-20T13:21:26;2.03;;;1.50;;
11422;SDS011;5768;51.476;7.210;2022-12-20T13:26:42;2.75;;;2.00;;
11422;SDS011;5768;51.476;7.210;2022-12-20T13:31:53;2.30;;;1.92;;
11422;SDS011;5768;51.476;7.210;2022-12-20T13:36:59;3.67;;;2.13;;
11422;SDS011;5768;51.476;7.210;2022-12-20T13:42:08;2.05;;;1.85;;
11422;SDS011;5768;51.476;7.210;2022-12-20T13:47:34;3.05;;;1.73;;
11422;SDS011;5768;51.476;7.210;2022-12-20T13:52:47;2.38;;;2.17;;
11422;SDS011;5768;51.476;7.210;2022-12-20T13:57:49;2.58;;;2.08;;
11422;SDS011;5768;51.476;7.210;2022-12-20T14:02:54;4.70;;;2.20;;
11422;SDS011;5768;51.476;7.210;2022-12-20T14:07:59;3.13;;;1.92;;
11422;SDS011;5768;51.476;7.210;2022-12-20T14:13:13;4.88;;;2.13;;
11422;SDS011;5768;51.476;7.210;2022-12-20T14:18:22;3.28;;;2.40;;
11422;SDS011;5768;51.476;7.210;2022-12-20T14:23:28;2.43;;;1.63;;
11422;SDS011;5768;51.476;7.210;2022-12-20T14:28:40;2.05;;;1.80;;
11422;SDS011;5768;51.476;7.210;2022-12-20T14:33:45;2.58;;;2.05;;
11422;SDS011;5768;51.476;7.210;2022-12-20T14:38:51;6.30;;;2.13;;
11422;SDS011;5768;51.476;7.210;2022-12-20T14:43:57;3.15;;;2.17;;
11422;SDS011;5768;51.476;7.210;2022-12-20T14:49:07;2.77;;;2.13;;
11422;SDS011;5768;51.476;7.210;2022-12-20T14:54:24;2.92;;;2.00;;
11422;SDS011;5768;51.476;7.210;2022-12-20T14:59:32;3.45;;;2.42;;
11422;SDS011;5768;51.476;7.210;2022-12-20T15:04:41;3.03;;;2.28;;
11422;SDS011;5768;51.476;7.210;2022-12-20T15:09:47;4.55;;;2.85;;
11422;SDS011;5768;51.476;7.210;2022-12-20T15:14:49;3.90;;;2.30;;
11422;SDS011;5768;51.476;7.210;2022-12-20T15:19:52;3.85;;;1.98;;
11422;SDS011;5768;51.476;7.210;2022-12-20T15:24:58;2.70;;;2.13;;
11422;SDS011;5768;51.476;7.210;2022-12-20T15:30:00;2.72;;;2.13;;
11422;SDS011;5768;51.476;7.210;2022-12-20T15:35:10;2.30;;;2.10;;
11422;SDS011;5768;51.476;7.210;2022-12-20T15:40:17;3.25;;;2.20;;
11422;SDS011;5768;51.476;7.210;2022-12-20T15:45:19;4.20;;;2.27;;
11422;SDS011;5768;51.476;7.210;2022-12-20T15:50:23;4.45;;;2.50;;
11422;SDS011;5768;51.476;7.210;2022-12-20T15:55:27;2.38;;;2.08;;
11422;SDS011;5768;51.476;7.210;2022-12-20T16:00:29;3.00;;;2.33;;
11422;SDS011;5768;51.476;7.210;2022-12-20T16:05:31;4.63;;;3.20;;
11422;SDS011;5768;51.476;7.210;2022-12-20T16:10:36;3.17;;;2.70;;
11422;SDS011;5768;51.476;7.210;2022-12-20T16:15:39;3.92;;;2.53;;
11422;SDS011;5768;51.476;7.210;2022-12-20T16:20:42;3.70;;;2.47;;
11422;SDS011;5768;51.476;7.210;2022-12-20T16:25:46;2.80;;;2.20;;
11422;SDS011;5768;51.476;7.210;2022-12-20T16:30:50;3.83;;;2.20;;
11422;SDS011;5768;51.476;7.210;2022-12-20T16:35:52;4.03;;;2.47;;
11422;SDS011;5768;51.476;7.210;2022-12-20T16:40:56;4.03;;;2.33;;
11422;SDS011;5768;51.476;7.210;2022-12-20T16:46:13;3.20;;;2.30;;
11422;SDS011;5768;51.476;7.210;2022-12-20T16:51:21;4.22;;;2.50;;
11422;SDS011;5768;51.476;7.210;2022-12-20T16:56:27;3.60;;;2.10;;
11422;SDS011;5768;51.476;7.210;2022-12-20T17:01:30;4.63;;;2.50;;
11422;SDS011;5768;51.476;7.210;2022-12-20T17:06:35;5.20;;;3.13;;
11422;SDS011;5768;51.476;7.210;2022-12-20T17:11:38;3.67;;;2.40;;
11422;SDS011;5768;51.476;7.210;2022-12-20T17:16:41;4.20;;;3.00;;
11422;SDS011;5768;51.476;7.210;2022-12-20T17:21:47;8.77;;;7.07;;
11422;SDS011;5768;51.476;7.210;2022-12-20T17:26:53;3.43;;;2.90;;
11422;SDS011;5768;51.476;7.210;2022-12-20T17:31:56;4.13;;;2.40;;
11422;SDS011;5768;51.476;7.210;2022-12-20T17:36:58;2.70;;;2.30;;
11422;SDS011;5768;51.476;7.210;2022-12-20T17:42:04;3.00;;;2.33;;
11422;SDS011;5768;51.476;7.210;2022-12-20T17:47:07;5.23;;;3.73;;
11422;SDS011;5768;51.476;7.210;2022-12-20T17:52:11;5.20;;;3.30;;
11422;SDS011;5768;51.476;7.210;2022-12-20T17:57:25;4.93;;;3.70;;
11422;SDS011;5768;51.476;7.210;2022-12-20T18:02:30;4.60;;;3.22;;
11422;SDS011;5768;51.476;7.210;2022-12-20T18:07:36;2.93;;;2.73;;
11422;SDS011;5768;51.476;7.210;2022-12-20T18:12:40;3.57;;;2.60;;
11422;SDS011;5768;51.476;7.210;2022-12-20T18:17:44;3.83;;;2.20;;
11422;SDS011;5768;51.476;7.210;2022-12-20T18:22:47;4.23;;;2.67;;
11422;SDS011;5768;51.476;7.210;2022-12-20T18:27:51;3.37;;;2.53;;
11422;SDS011;5768;51.476;7.210;2022-12-20T18:32:53;2.97;;;2.47;;
11422;SDS011;5768;51.476;7.210;2022-12-20T18:37:56;4.10;;;2.65;;
11422;SDS011;5768;51.476;7.210;2022-12-20T18:43:00;2.67;;;2.43;;
11422;SDS011;5768;51.476;7.210;2022-12-20T18:48:09;3.13;;;2.83;;
11422;SDS011;5768;51.476;7.210;2022-12-20T18:53:12;4.40;;;3.00;;
11422;SDS011;5768;51.476;7.210;2022-12-20T18:58:15;12.03;;;9.10;;
11422;SDS011;5768;51.476;7.210;2022-12-20T19:03:18;4.03;;;2.80;;
11422;SDS011;5768;51.476;7.210;2022-12-20T19:08:20;4.43;;;3.27;;
11422;SDS011;5768;51.476;7.210;2022-12-20T19:13:24;3.20;;;2.90;;
11422;SDS011;5768;51.476;7.210;2022-12-20T19:18:27;5.83;;;3.43;;
11422;SDS011;5768;51.476;7.210;2022-12-20T19:23:29;4.40;;;3.30;;
11422;SDS011;5768;51.476;7.210;2022-12-20T19:28:42;4.57;;;3.20;;
11422;SDS011;5768;51.476;7.210;2022-12-20T19:33:48;4.30;;;3.10;;
11422;SDS011;5768;51.476;7.210;2022-12-20T19:38:52;4.95;;;3.03;;
11422;SDS011;5768;51.476;7.210;2022-12-20T19:43:57;4.47;;;2.83;;
11422;SDS011;5768;51.476;7.210;2022-12-20T19:49:00;5.45;;;3.22;;
11422;SDS011;5768;51.476;7.210;2022-12-20T19:54:02;6.17;;;3.33;;
11422;SDS011;5768;51.476;7.210;2022-12-20T19:59:08;4.83;;;3.37;;
11422;SDS011;5768;51.476;7.210;2022-12-20T20:04:13;4.73;;;3.37;;
11422;SDS011;5768;51.476;7.210;2022-12-20T20:09:15;5.95;;;3.67;;
11422;SDS011;5768;51.476;7.210;2022-12-20T20:14:19;4.23;;;3.87;;
11422;SDS011;5768;51.476;7.210;2022-12-20T20:19:27;5.43;;;3.78;;
11422;SDS011;5768;51.476;7.210;2022-12-20T20:24:29;4.63;;;3.73;;
11422;SDS011;5768;51.476;7.210;2022-12-20T20:29:35;4.77;;;3.80;;
11422;SDS011;5768;51.476;7.210;2022-12-20T20:34:38;5.50;;;3.83;;
11422;SDS011;5768;51.476;7.210;2022-12-20T20:39:41;4.23;;;3.83;;
11422;SDS011;5768;51.476;7.210;2022-12-20T20:44:45;5.00;;;4.50;;
11422;SDS011;5768;51.476;7.210;2022-12-20T20:49:47;5.23;;;3.90;;
11422;SDS011;5768;51.476;7.210;2022-12-20T20:54:51;6.13;;;4.97;;
11422;SDS011;5768;51.476;7.210;2022-12-20T20:59:55;4.57;;;4.17;;
11422;SDS011;5768;51.476;7.210;2022-12-20T21:04:57;5.78;;;3.83;;
11422;SDS011;5768;51.476;7.210;2022-12-20T21:09:59;4.77;;;4.00;;
11422;SDS011;5768;51.476;7.210;2022-12-20T21:15:06;4.30;;;3.60;;
11422;SDS011;5768;51.476;7.210;2022-12-20T21:20:13;5.60;;;3.50;;
11422;SDS011;5768;51.476;7.210;2022-12-20T21:25:15;4.20;;;3.40;;
11422;SDS011;5768;51.476;7.210;2022-12-20T21:30:19;4.40;;;3.50;;
11422;SDS011;5768;51.476;7.210;2022-12-20T21:35:23;5.00;;;4.33;;
11422;SDS011;5768;51.476;7.210;2022-12-20T21:40:26;3.80;;;3.40;;
11422;SDS011;5768;51.476;7.210;2022-12-20T21:45:31;3.63;;;2.00;;
11422;SDS011;5768;51.476;7.210;2022-12-20T21:50:34;4.00;;;3.60;;
11422;SDS011;5768;51.476;7.210;2022-12-20T21:55:36;5.13;;;3.93;;
11422;SDS011;5768;51.476;7.210;2022-12-20T22:00:41;3.87;;;3.27;;
11422;SDS011;5768;51.476;7.210;2022-12-20T22:05:44;3.80;;;3.17;;
11422;SDS011;5768;51.476;7.210;2022-12-20T22:10:47;4.60;;;4.03;;
11422;SDS011;5768;51.476;7.210;2022-12-20T22:15:58;4.20;;;3.80;;
11422;SDS011;5768;51.476;7.210;2022-12-20T22:21:08;6.50;;;4.97;;
11422;SDS011;5768;51.476;7.210;2022-12-20T22:26:16;4.40;;;4.00;;
11422;SDS011;5768;51.476;7.210;2022-12-20T22:31:24;4.77;;;3.87;;
11422;SDS011;5768;51.476;7.210;2022-12-20T22:36:27;4.37;;;3.97;;
11422;SDS011;5768;51.476;7.210;2022-12-20T22:41:30;4.73;;;4.20;;
11422;SDS011;5768;51.476;7.210;2022-12-20T22:46:35;4.23;;;3.50;;
11422;SDS011;5768;51.476;7.210;2022-12-20T22:51:37;4.03;;;3.60;;
11422;SDS011;5768;51.476;7.210;2022-12-20T22:56:40;12.77;;;5.03;;
11422;SDS011;5768;51.476;7.210;2022-12-20T23:01:43;3.70;;;3.40;;
11422;SDS011;5768;51.476;7.210;2022-12-20T23:06:46;5.53;;;3.90;;
11422;SDS011;5768;51.476;7.210;2022-12-20T23:11:48;5.00;;;4.60;;
11422;SDS011;5768;51.476;7.210;2022-12-20T23:17:20;5.03;;;4.53;;
11422;SDS011;5768;51.476;7.210;2022-12-20T23:22:23;4.20;;;3.80;;
11422;SDS011;5768;51.476;7.210;2022-12-20T23:27:38;5.80;;;5.30;;
11422;SDS011;5768;51.476;7.210;2022-12-20T23:32:44;5.13;;;4.67;;
11422;SDS011;5768;51.476;7.210;2022-12-20T23:37:46;5.87;;;5.37;;
11422;SDS011;5768;51.476;7.210;2022-12-20T23:42:51;6.40;;;5.80;;
11422;SDS011;5768;51.476;7.210;2022-12-20T23:47:56;6.27;;;5.67;;
11422;SDS011;5768;51.476;7.210;2022-12-20T23:52:58;6.07;;;5.47;;
11422;SDS011;5768;51.476;7.210;2022-12-20T23:58:00;7.43;;;6.80;;
